createdAt,value
2023-06-09T00:00:07.174Z,635.00
2023-06-09T00:01:07.190Z,635.00
2023-06-09T00:02:07.261Z,634.00
2023-06-09T00:03:07.364Z,633.00
2023-06-09T00:04:07.336Z,633.00
2023-06-09T00:05:07.540Z,635.00
2023-06-09T00:06:07.378Z,635.00
2023-06-09T00:07:07.413Z,633.00
2023-06-09T00:08:07.453Z,637.00
2023-06-09T00:09:07.511Z,638.00
2023-06-09T00:10:07.585Z,638.00
2023-06-09T00:11:07.584Z,640.00
2023-06-09T00:12:07.626Z,640.00
2023-06-09T00:13:07.661Z,639.00
2023-06-09T00:14:07.693Z,636.00
2023-06-09T00:15:07.917Z,637.00
2023-06-09T00:16:07.783Z,637.00
2023-06-09T00:17:07.852Z,637.00
2023-06-09T00:18:07.914Z,638.00
2023-06-09T00:19:07.921Z,637.00
2023-06-09T00:20:07.952Z,637.00
2023-06-09T00:21:07.992Z,636.00
2023-06-09T00:22:08.032Z,635.00
2023-06-09T00:23:08.078Z,633.00
2023-06-09T00:24:08.173Z,632.00
2023-06-09T00:25:08.389Z,632.00
2023-06-09T00:26:08.207Z,630.00
2023-06-09T00:27:08.237Z,629.00
2023-06-09T00:28:08.280Z,633.00
2023-06-09T00:29:08.304Z,633.00
2023-06-09T00:30:08.383Z,633.00
2023-06-09T00:31:08.453Z,633.00
2023-06-09T00:32:08.449Z,633.00
2023-06-09T00:33:08.622Z,632.00
2023-06-09T00:34:08.551Z,629.00
2023-06-09T00:35:08.890Z,629.00
2023-06-09T00:36:08.641Z,631.00
2023-06-09T00:37:08.677Z,630.00
2023-06-09T00:38:08.744Z,629.00
2023-06-09T00:39:08.775Z,630.00
2023-06-09T00:40:08.826Z,630.00
2023-06-09T00:41:08.889Z,629.00
2023-06-09T00:42:08.906Z,629.00
2023-06-09T00:43:08.956Z,629.00
2023-06-09T00:44:09.002Z,631.00
2023-06-09T00:45:09.166Z,629.00
2023-06-09T00:46:09.113Z,630.00
2023-06-09T00:47:09.194Z,631.00
2023-06-09T00:48:09.204Z,634.00
2023-06-09T00:49:09.222Z,635.00
2023-06-09T00:50:09.269Z,635.00
2023-06-09T00:51:09.319Z,636.00
2023-06-09T00:52:09.356Z,635.00
2023-06-09T00:53:09.429Z,634.00
2023-06-09T00:54:09.457Z,633.00
2023-06-09T00:55:09.509Z,634.00
2023-06-09T00:56:09.643Z,634.00
2023-06-09T00:57:09.625Z,634.00
2023-06-09T00:58:09.652Z,632.00
2023-06-09T00:59:09.703Z,633.00
2023-06-09T01:00:09.757Z,632.00
2023-06-09T01:01:09.847Z,630.00
2023-06-09T01:02:09.854Z,631.00
2023-06-09T01:03:09.987Z,632.00
2023-06-09T01:04:09.963Z,634.00
2023-06-09T01:05:10.018Z,637.00
2023-06-09T01:06:10.047Z,639.00
2023-06-09T01:07:10.096Z,636.00
2023-06-09T01:08:10.163Z,635.00
2023-06-09T01:09:10.197Z,634.00
2023-06-09T01:10:10.264Z,633.00
2023-06-09T01:11:10.303Z,633.00
2023-06-09T01:12:10.337Z,632.00
2023-06-09T01:13:10.397Z,633.00
2023-06-09T01:14:10.450Z,635.00
2023-06-09T01:15:10.597Z,634.00
2023-06-09T01:16:10.586Z,635.00
2023-06-09T01:17:10.641Z,635.00
2023-06-09T01:18:10.664Z,633.00
2023-06-09T01:19:10.706Z,634.00
2023-06-09T01:20:10.759Z,635.00
2023-06-09T01:21:10.815Z,633.00
2023-06-09T01:22:10.876Z,635.00
2023-06-09T01:23:10.907Z,635.00
2023-06-09T01:24:11.002Z,637.00
2023-06-09T01:25:11.006Z,636.00
2023-06-09T01:26:11.046Z,637.00
2023-06-09T01:27:11.090Z,637.00
2023-06-09T01:28:11.137Z,635.00
2023-06-09T01:29:11.180Z,635.00
2023-06-09T01:30:11.231Z,641.00
2023-06-09T01:31:11.269Z,644.00
2023-06-09T01:32:11.320Z,646.00
2023-06-09T01:33:11.431Z,644.00
2023-06-09T01:34:12.132Z,641.00
2023-06-09T01:35:11.489Z,639.00
2023-06-09T01:36:11.512Z,640.00
2023-06-09T01:37:11.569Z,641.00
2023-06-09T01:38:11.630Z,641.00
2023-06-09T01:39:11.671Z,638.00
2023-06-09T01:40:11.755Z,639.00
2023-06-09T01:41:11.777Z,639.00
2023-06-09T01:42:11.844Z,635.00
2023-06-09T01:43:11.882Z,635.00
2023-06-09T01:44:11.934Z,633.00
2023-06-09T01:45:11.982Z,629.00
2023-06-09T01:46:12.134Z,632.00
2023-06-09T01:47:12.094Z,630.00
2023-06-09T01:48:12.188Z,631.00
2023-06-09T01:49:12.181Z,628.00
2023-06-09T01:50:12.232Z,627.00
2023-06-09T01:51:12.281Z,627.00
2023-06-09T01:52:13.143Z,629.00
2023-06-09T01:53:13.506Z,630.00
2023-06-09T01:54:12.578Z,631.00
2023-06-09T01:55:12.626Z,633.00
2023-06-09T01:56:12.668Z,633.00
2023-06-09T01:57:12.717Z,633.00
2023-06-09T01:58:12.821Z,635.00
2023-06-09T01:59:12.825Z,638.00
2023-06-09T02:00:12.871Z,640.00
2023-06-09T02:01:12.962Z,642.00
2023-06-09T02:02:12.974Z,641.00
2023-06-09T02:03:13.153Z,641.00
2023-06-09T02:04:13.209Z,638.00
2023-06-09T02:05:13.144Z,636.00
2023-06-09T02:06:13.195Z,638.00
2023-06-09T02:07:13.236Z,637.00
2023-06-09T02:08:13.292Z,639.00
2023-06-09T02:09:13.361Z,637.00
2023-06-09T02:10:13.394Z,637.00
2023-06-09T02:11:13.450Z,636.00
2023-06-09T02:12:13.506Z,636.00
2023-06-09T02:13:13.574Z,638.00
2023-06-09T02:14:13.620Z,639.00
2023-06-09T02:15:13.671Z,638.00
2023-06-09T02:16:13.727Z,634.00
2023-06-09T02:17:13.775Z,635.00
2023-06-09T02:18:13.806Z,637.00
2023-06-09T02:19:13.863Z,637.00
2023-06-09T02:20:13.925Z,636.00
2023-06-09T02:21:13.983Z,635.00
2023-06-09T02:22:14.030Z,634.00
2023-06-09T02:23:14.077Z,631.00
2023-06-09T02:24:14.197Z,629.00
2023-06-09T02:25:14.178Z,627.00
2023-06-09T02:26:14.210Z,628.00
2023-06-09T02:27:14.272Z,630.00
2023-06-09T02:28:14.299Z,630.00
2023-06-09T02:29:14.343Z,627.00
2023-06-09T02:30:14.396Z,625.00
2023-06-09T02:31:14.496Z,625.00
2023-06-09T02:32:14.505Z,623.00
2023-06-09T02:33:14.549Z,626.00
2023-06-09T02:34:14.601Z,628.00
2023-06-09T02:35:14.666Z,628.00
2023-06-09T02:36:14.705Z,627.00
2023-06-09T02:37:14.780Z,626.00
2023-06-09T02:38:14.823Z,625.00
2023-06-09T02:39:14.864Z,622.00
2023-06-09T02:40:14.953Z,624.00
2023-06-09T02:41:14.981Z,624.00
2023-06-09T02:42:15.040Z,625.00
2023-06-09T02:43:15.084Z,624.00
2023-06-09T02:44:15.150Z,622.00
2023-06-09T02:45:15.204Z,623.00
2023-06-09T02:46:15.358Z,626.00
2023-06-09T02:47:15.363Z,629.00
2023-06-09T02:48:15.396Z,632.00
2023-06-09T02:49:15.453Z,631.00
2023-06-09T02:50:15.518Z,629.00
2023-06-09T02:51:15.596Z,628.00
2023-06-09T02:52:15.626Z,627.00
2023-06-09T02:53:15.707Z,628.00
2023-06-09T02:54:18.219Z,629.00
2023-06-09T02:55:15.736Z,631.00
2023-06-09T02:56:15.732Z,632.00
2023-06-09T02:57:15.734Z,630.00
2023-06-09T02:58:15.735Z,625.00
2023-06-09T02:59:15.740Z,629.00
2023-06-09T03:00:15.747Z,633.00
2023-06-09T03:01:15.770Z,632.00
2023-06-09T03:02:15.752Z,632.00
2023-06-09T03:03:15.863Z,633.00
2023-06-09T03:04:15.835Z,636.00
2023-06-09T03:05:15.758Z,636.00
2023-06-09T03:06:15.866Z,635.00
2023-06-09T03:07:15.772Z,632.00
2023-06-09T03:08:15.808Z,634.00
2023-06-09T03:09:15.781Z,635.00
2023-06-09T03:10:15.781Z,634.00
2023-06-09T03:11:15.783Z,634.00
2023-06-09T03:12:15.779Z,633.00
2023-06-09T03:13:15.782Z,634.00
2023-06-09T03:14:15.795Z,635.00
2023-06-09T03:15:15.773Z,636.00
2023-06-09T03:16:15.778Z,636.00
2023-06-09T03:17:15.875Z,636.00
2023-06-09T03:18:15.787Z,638.00
2023-06-09T03:19:15.784Z,637.00
2023-06-09T03:20:15.773Z,636.00
2023-06-09T03:21:15.768Z,637.00
2023-06-09T03:22:15.767Z,636.00
2023-06-09T03:23:15.763Z,635.00
2023-06-09T03:24:15.832Z,635.00
2023-06-09T03:25:15.756Z,637.00
2023-06-09T03:26:15.769Z,636.00
2023-06-09T03:27:15.757Z,638.00
2023-06-09T03:28:16.681Z,638.00
2023-06-09T03:29:15.748Z,639.00
2023-06-09T03:30:15.741Z,638.00
2023-06-09T03:31:15.796Z,636.00
2023-06-09T03:32:15.744Z,638.00
2023-06-09T03:33:15.751Z,636.00
2023-06-09T03:34:15.737Z,634.00
2023-06-09T03:35:15.736Z,633.00
2023-06-09T03:36:15.730Z,635.00
2023-06-09T03:37:15.753Z,636.00
2023-06-09T03:38:15.763Z,636.00
2023-06-09T03:39:15.826Z,634.00
2023-06-09T03:40:15.885Z,635.00
2023-06-09T03:41:15.951Z,636.00
2023-06-09T03:42:16.023Z,637.00
2023-06-09T03:43:16.066Z,639.00
2023-06-09T03:44:16.137Z,638.00
2023-06-09T03:45:16.188Z,639.00
2023-06-09T03:46:16.283Z,639.00
2023-06-09T03:47:16.316Z,639.00
2023-06-09T03:48:16.414Z,638.00
2023-06-09T03:49:16.444Z,634.00
2023-06-09T03:50:16.510Z,634.00
2023-06-09T03:51:16.571Z,633.00
2023-06-09T03:52:16.630Z,631.00
2023-06-09T03:53:16.692Z,632.00
2023-06-09T03:54:16.738Z,632.00
2023-06-09T03:55:16.811Z,634.00
2023-06-09T03:56:16.898Z,633.00
2023-06-09T03:57:16.953Z,631.00
2023-06-09T03:58:16.995Z,632.00
2023-06-09T03:59:17.053Z,632.00
2023-06-09T04:00:17.135Z,631.00
2023-06-09T04:01:17.181Z,629.00
2023-06-09T04:02:17.322Z,629.00
2023-06-09T04:03:17.344Z,630.00
2023-06-09T04:04:17.429Z,632.00
2023-06-09T04:05:17.411Z,631.00
2023-06-09T04:06:17.512Z,630.00
2023-06-09T04:07:17.530Z,629.00
2023-06-09T04:08:17.598Z,629.00
2023-06-09T04:09:17.659Z,630.00
2023-06-09T04:10:17.712Z,632.00
2023-06-09T04:11:17.768Z,631.00
2023-06-09T04:12:17.842Z,630.00
2023-06-09T04:13:17.911Z,631.00
2023-06-09T04:14:17.945Z,632.00
2023-06-09T04:15:18.003Z,634.00
2023-06-09T04:16:18.073Z,635.00
2023-06-09T04:17:18.090Z,637.00
2023-06-09T04:18:18.232Z,634.00
2023-06-09T04:19:18.207Z,634.00
2023-06-09T04:20:18.263Z,636.00
2023-06-09T04:21:18.332Z,633.00
2023-06-09T04:22:18.375Z,629.00
2023-06-09T04:23:18.434Z,631.00
2023-06-09T04:24:18.644Z,631.00
2023-06-09T04:25:18.551Z,632.00
2023-06-09T04:26:18.607Z,629.00
2023-06-09T04:27:18.657Z,630.00
2023-06-09T04:28:18.806Z,630.00
2023-06-09T04:29:18.794Z,629.00
2023-06-09T04:30:18.849Z,629.00
2023-06-09T04:31:18.882Z,628.00
2023-06-09T04:32:18.993Z,631.00
2023-06-09T04:33:19.034Z,631.00
2023-06-09T04:34:19.071Z,631.00
2023-06-09T04:35:19.095Z,633.00
2023-06-09T04:36:19.139Z,632.00
2023-06-09T04:37:19.186Z,634.00
2023-06-09T04:38:19.238Z,632.00
2023-06-09T04:39:19.286Z,633.00
2023-06-09T04:40:19.338Z,632.00
2023-06-09T04:41:19.391Z,630.00
2023-06-09T04:42:19.432Z,629.00
2023-06-09T04:43:19.477Z,627.00
2023-06-09T04:44:19.555Z,628.00
2023-06-09T04:45:19.555Z,627.00
2023-06-09T04:46:19.608Z,626.00
2023-06-09T04:47:19.625Z,626.00
2023-06-09T04:48:19.673Z,627.00
2023-06-09T04:49:19.714Z,627.00
2023-06-09T04:50:19.747Z,626.00
2023-06-09T04:51:19.777Z,625.00
2023-06-09T04:52:19.820Z,626.00
2023-06-09T04:53:19.856Z,625.00
2023-06-09T04:54:19.887Z,627.00
2023-06-09T04:55:19.926Z,626.00
2023-06-09T04:56:19.958Z,628.00
2023-06-09T04:57:19.983Z,626.00
2023-06-09T04:58:20.011Z,627.00
2023-06-09T04:59:20.043Z,626.00
2023-06-09T05:00:20.090Z,625.00
2023-06-09T05:01:20.135Z,623.00
2023-06-09T05:02:20.124Z,621.00
2023-06-09T05:03:20.132Z,620.00
2023-06-09T05:04:20.168Z,619.00
2023-06-09T05:05:20.225Z,619.00
2023-06-09T05:06:20.216Z,621.00
2023-06-09T05:07:20.232Z,620.00
2023-06-09T05:08:22.094Z,618.00
2023-06-09T05:09:20.267Z,619.00
2023-06-09T05:10:20.270Z,618.00
2023-06-09T05:11:20.299Z,620.00
2023-06-09T05:12:20.319Z,619.00
2023-06-09T05:13:20.326Z,617.00
2023-06-09T05:14:20.340Z,618.00
2023-06-09T05:15:20.512Z,619.00
2023-06-09T05:16:20.409Z,621.00
2023-06-09T05:17:20.383Z,620.00
2023-06-09T05:18:20.515Z,619.00
2023-06-09T05:19:20.415Z,621.00
2023-06-09T05:20:20.423Z,621.00
2023-06-09T05:21:20.433Z,620.00
2023-06-09T05:22:20.531Z,618.00
2023-06-09T05:23:20.512Z,619.00
2023-06-09T05:24:20.651Z,616.00
2023-06-09T05:25:20.565Z,619.00
2023-06-09T05:26:20.538Z,619.00
2023-06-09T05:27:20.526Z,620.00
2023-06-09T05:28:20.533Z,620.00
2023-06-09T05:29:20.530Z,619.00
2023-06-09T05:30:20.568Z,618.00
2023-06-09T05:31:20.701Z,617.00
2023-06-09T05:32:20.733Z,619.00
2023-06-09T05:33:20.701Z,620.00
2023-06-09T05:34:20.696Z,621.00
2023-06-09T05:35:20.705Z,623.00
2023-06-09T05:36:20.676Z,625.00
2023-06-09T05:37:20.676Z,624.00
2023-06-09T05:38:20.752Z,622.00
2023-06-09T05:39:20.727Z,622.00
2023-06-09T05:40:20.757Z,620.00
2023-06-09T05:41:20.733Z,620.00
2023-06-09T05:42:20.722Z,618.00
2023-06-09T05:43:20.720Z,617.00
2023-06-09T05:44:20.741Z,617.00
2023-06-09T05:45:20.791Z,617.00
2023-06-09T05:46:20.880Z,617.00
2023-06-09T05:47:20.966Z,619.00
2023-06-09T05:48:20.940Z,618.00
2023-06-09T05:49:20.971Z,620.00
2023-06-09T05:50:20.988Z,621.00
2023-06-09T05:51:20.990Z,622.00
2023-06-09T05:52:20.972Z,624.00
2023-06-09T05:53:20.979Z,621.00
2023-06-09T05:54:21.012Z,621.00
2023-06-09T05:55:21.150Z,621.00
2023-06-09T05:56:21.141Z,622.00
2023-06-09T05:57:21.209Z,625.00
2023-06-09T05:58:21.203Z,624.00
2023-06-09T05:59:21.260Z,624.00
2023-06-09T06:00:21.311Z,623.00
2023-06-09T06:01:21.400Z,622.00
2023-06-09T06:02:21.564Z,620.00
2023-06-09T06:03:21.553Z,620.00
2023-06-09T06:04:21.552Z,620.00
2023-06-09T06:05:22.266Z,622.00
2023-06-09T06:06:21.635Z,622.00
2023-06-09T06:07:21.644Z,621.00
2023-06-09T06:08:21.685Z,621.00
2023-06-09T06:09:21.759Z,623.00
2023-06-09T06:10:21.765Z,624.00
2023-06-09T06:11:21.807Z,625.00
2023-06-09T06:12:21.847Z,627.00
2023-06-09T06:13:21.884Z,626.00
2023-06-09T06:14:21.925Z,623.00
2023-06-09T06:15:21.977Z,622.00
2023-06-09T06:16:22.083Z,622.00
2023-06-09T06:17:22.048Z,622.00
2023-06-09T06:18:22.075Z,625.00
2023-06-09T06:19:22.134Z,622.00
2023-06-09T06:20:22.151Z,622.00
2023-06-09T06:21:22.179Z,623.00
2023-06-09T06:22:22.215Z,624.00
2023-06-09T06:23:22.247Z,623.00
2023-06-09T06:24:22.330Z,622.00
2023-06-09T06:25:22.297Z,623.00
2023-06-09T06:26:22.343Z,624.00
2023-06-09T06:27:22.359Z,624.00
2023-06-09T06:28:22.382Z,623.00
2023-06-09T06:29:22.404Z,622.00
2023-06-09T06:30:22.484Z,621.00
2023-06-09T06:31:22.478Z,620.00
2023-06-09T06:32:22.520Z,622.00
2023-06-09T06:33:22.505Z,621.00
2023-06-09T06:34:22.525Z,619.00
2023-06-09T06:35:22.571Z,620.00
2023-06-09T06:36:22.576Z,616.00
2023-06-09T06:37:22.590Z,612.00
2023-06-09T06:38:22.607Z,609.00
2023-06-09T06:39:22.625Z,611.00
2023-06-09T06:40:22.643Z,613.00
2023-06-09T06:41:22.660Z,615.00
2023-06-09T06:42:22.710Z,615.00
2023-06-09T06:43:22.724Z,617.00
2023-06-09T06:44:22.712Z,618.00
2023-06-09T06:45:22.712Z,619.00
2023-06-09T06:46:22.742Z,624.00
2023-06-09T06:47:22.722Z,627.00
2023-06-09T06:48:22.733Z,625.00
2023-06-09T06:49:22.761Z,625.00
2023-06-09T06:50:25.743Z,625.00
2023-06-09T06:51:22.726Z,622.00
2023-06-09T06:52:22.700Z,621.00
2023-06-09T06:53:22.677Z,621.00
2023-06-09T06:54:22.644Z,621.00
2023-06-09T06:55:22.628Z,618.00
2023-06-09T06:56:22.624Z,614.00
2023-06-09T06:57:22.583Z,613.00
2023-06-09T06:58:22.561Z,613.00
2023-06-09T06:59:22.541Z,614.00
2023-06-09T07:00:22.520Z,614.00
2023-06-09T07:01:22.516Z,613.00
2023-06-09T07:02:22.514Z,615.00
2023-06-09T07:03:22.447Z,614.00
2023-06-09T07:04:22.443Z,612.00
2023-06-09T07:05:22.384Z,611.00
2023-06-09T07:06:22.384Z,613.00
2023-06-09T07:07:22.331Z,615.00
2023-06-09T07:08:22.303Z,616.00
2023-06-09T07:09:22.794Z,617.00
2023-06-09T07:10:22.241Z,618.00
2023-06-09T07:11:22.218Z,617.00
2023-06-09T07:12:22.194Z,618.00
2023-06-09T07:13:22.157Z,618.00
2023-06-09T07:14:22.131Z,617.00
2023-06-09T07:15:22.136Z,620.00
2023-06-09T07:16:22.092Z,619.00
2023-06-09T07:17:22.115Z,618.00
2023-06-09T07:18:22.207Z,619.00
2023-06-09T07:19:22.020Z,616.00
2023-06-09T07:20:22.003Z,618.00
2023-06-09T07:21:21.975Z,618.00
2023-06-09T07:22:21.949Z,614.00
2023-06-09T07:23:21.918Z,612.00
2023-06-09T07:24:21.992Z,613.00
2023-06-09T07:25:21.877Z,613.00
2023-06-09T07:26:21.849Z,614.00
2023-06-09T07:27:21.818Z,616.00
2023-06-09T07:28:21.826Z,616.00
2023-06-09T07:29:21.769Z,615.00
2023-06-09T07:30:21.754Z,617.00
2023-06-09T07:31:21.837Z,614.00
2023-06-09T07:32:21.868Z,614.00
2023-06-09T07:33:21.664Z,612.00
2023-06-09T07:34:21.673Z,612.00
2023-06-09T07:35:21.616Z,611.00
2023-06-09T07:36:21.595Z,612.00
2023-06-09T07:37:21.605Z,614.00
2023-06-09T07:38:21.535Z,613.00
2023-06-09T07:39:21.515Z,612.00
2023-06-09T07:40:22.099Z,614.00
2023-06-09T07:41:21.440Z,612.00
2023-06-09T07:42:21.425Z,612.00
2023-06-09T07:43:21.389Z,611.00
2023-06-09T07:44:21.360Z,609.00
2023-06-09T07:45:21.339Z,606.00
2023-06-09T07:46:21.342Z,605.00
2023-06-09T07:47:21.339Z,603.00
2023-06-09T07:48:21.331Z,603.00
2023-06-09T07:49:21.801Z,606.00
2023-06-09T07:50:21.348Z,606.00
2023-06-09T07:51:21.358Z,610.00
2023-06-09T07:52:24.796Z,611.00
2023-06-09T07:53:21.376Z,613.00
2023-06-09T07:54:21.368Z,613.00
2023-06-09T07:55:21.311Z,612.00
2023-06-09T07:56:21.273Z,613.00
2023-06-09T07:57:21.252Z,610.00
2023-06-09T07:58:21.232Z,607.00
2023-06-09T07:59:21.212Z,608.00
2023-06-09T08:00:21.184Z,611.00
2023-06-09T08:01:21.154Z,611.00
2023-06-09T08:02:21.141Z,611.00
2023-06-09T08:03:21.182Z,610.00
2023-06-09T08:04:21.336Z,610.00
2023-06-09T08:05:21.130Z,610.00
2023-06-09T08:06:21.032Z,614.00
2023-06-09T08:07:21.003Z,614.00
2023-06-09T08:08:20.982Z,614.00
2023-06-09T08:09:20.952Z,616.00
2023-06-09T08:10:20.921Z,615.00
2023-06-09T08:11:20.906Z,612.00
2023-06-09T08:12:20.872Z,611.00
2023-06-09T08:13:20.862Z,608.00
2023-06-09T08:14:20.824Z,608.00
2023-06-09T08:15:20.782Z,609.00
2023-06-09T08:16:20.777Z,609.00
2023-06-09T08:17:23.267Z,606.00
2023-06-09T08:18:20.705Z,604.00
2023-06-09T08:19:20.663Z,605.00
2023-06-09T08:20:20.645Z,607.00
2023-06-09T08:21:20.608Z,610.00
2023-06-09T08:22:20.543Z,610.00
2023-06-09T08:23:20.514Z,611.00
2023-06-09T08:24:20.622Z,614.00
2023-06-09T08:25:20.455Z,614.00
2023-06-09T08:26:20.426Z,614.00
2023-06-09T08:27:20.386Z,615.00
2023-06-09T08:28:20.364Z,614.00
2023-06-09T08:29:20.331Z,617.00
2023-06-09T08:30:20.298Z,617.00
2023-06-09T08:31:20.320Z,618.00
2023-06-09T08:32:20.234Z,617.00
2023-06-09T08:33:20.249Z,619.00
2023-06-09T08:34:20.185Z,617.00
2023-06-09T08:35:20.150Z,616.00
2023-06-09T08:36:20.125Z,618.00
2023-06-09T08:37:20.091Z,619.00
2023-06-09T08:38:20.084Z,617.00
2023-06-09T08:39:20.045Z,616.00
2023-06-09T08:40:20.011Z,618.00
2023-06-09T08:41:19.985Z,615.00
2023-06-09T08:42:19.972Z,614.00
2023-06-09T08:43:19.930Z,616.00
2023-06-09T08:44:19.907Z,615.00
2023-06-09T08:45:19.876Z,615.00
2023-06-09T08:46:19.872Z,612.00
2023-06-09T08:47:19.844Z,610.00
2023-06-09T08:48:19.784Z,611.00
2023-06-09T08:49:19.760Z,610.00
2023-06-09T08:50:19.801Z,612.00
2023-06-09T08:51:19.682Z,613.00
2023-06-09T08:52:19.648Z,614.00
2023-06-09T08:53:19.614Z,614.00
2023-06-09T08:54:19.600Z,612.00
2023-06-09T08:55:19.556Z,611.00
2023-06-09T08:56:19.505Z,614.00
2023-06-09T08:57:19.487Z,611.00
2023-06-09T08:58:19.445Z,609.00
2023-06-09T08:59:19.407Z,609.00
2023-06-09T09:00:19.384Z,608.00
2023-06-09T09:01:19.414Z,610.00
2023-06-09T09:02:19.297Z,610.00
2023-06-09T09:03:19.302Z,609.00
2023-06-09T09:04:19.482Z,610.00
2023-06-09T09:05:19.221Z,610.00
2023-06-09T09:06:19.235Z,610.00
2023-06-09T09:07:19.254Z,611.00
2023-06-09T09:08:19.256Z,612.00
2023-06-09T09:09:19.270Z,612.00
2023-06-09T09:10:19.344Z,613.00
2023-06-09T09:11:19.314Z,614.00
2023-06-09T09:12:19.312Z,612.00
2023-06-09T09:13:19.339Z,613.00
2023-06-09T09:14:19.319Z,611.00
2023-06-09T09:15:19.328Z,611.00
2023-06-09T09:16:19.344Z,610.00
2023-06-09T09:17:19.334Z,608.00
2023-06-09T09:18:19.345Z,606.00
2023-06-09T09:19:19.344Z,607.00
2023-06-09T09:20:19.403Z,607.00
2023-06-09T09:21:19.364Z,604.00
2023-06-09T09:22:19.369Z,603.00
2023-06-09T09:23:19.390Z,606.00
2023-06-09T09:24:19.451Z,605.00
2023-06-09T09:25:19.394Z,604.00
2023-06-09T09:26:19.401Z,606.00
2023-06-09T09:27:19.420Z,607.00
2023-06-09T09:28:19.417Z,608.00
2023-06-09T09:29:19.427Z,607.00
2023-06-09T09:30:19.476Z,606.00
2023-06-09T09:31:19.448Z,609.00
2023-06-09T09:32:19.486Z,610.00
2023-06-09T09:33:19.443Z,610.00
2023-06-09T09:34:19.437Z,608.00
2023-06-09T09:35:19.438Z,611.00
2023-06-09T09:36:19.439Z,611.00
2023-06-09T09:37:19.434Z,612.00
2023-06-09T09:38:19.440Z,613.00
2023-06-09T09:39:19.432Z,613.00
2023-06-09T09:40:19.458Z,613.00
2023-06-09T09:41:19.441Z,611.00
2023-06-09T09:42:19.438Z,610.00
2023-06-09T09:43:19.445Z,609.00
2023-06-09T09:44:19.462Z,610.00
2023-06-09T09:45:19.452Z,609.00
2023-06-09T09:46:19.502Z,608.00
2023-06-09T09:47:19.458Z,608.00
2023-06-09T09:48:19.456Z,607.00
2023-06-09T09:49:19.458Z,609.00
2023-06-09T09:50:19.459Z,613.00
2023-06-09T09:51:20.423Z,613.00
2023-06-09T09:52:19.488Z,611.00
2023-06-09T09:53:19.487Z,613.00
2023-06-09T09:54:19.502Z,613.00
2023-06-09T09:55:19.495Z,612.00
2023-06-09T09:56:19.497Z,612.00
2023-06-09T09:57:19.510Z,614.00
2023-06-09T09:58:19.513Z,612.00
2023-06-09T09:59:19.515Z,610.00
2023-06-09T10:00:19.523Z,609.00
2023-06-09T10:01:19.550Z,611.00
2023-06-09T10:02:19.588Z,611.00
2023-06-09T10:03:19.670Z,610.00
2023-06-09T10:04:19.602Z,609.00
2023-06-09T10:05:19.587Z,609.00
2023-06-09T10:06:19.607Z,608.00
2023-06-09T10:07:19.602Z,606.00
2023-06-09T10:08:19.611Z,608.00
2023-06-09T10:09:19.630Z,609.00
2023-06-09T10:10:19.641Z,610.00
2023-06-09T10:11:19.667Z,612.00
2023-06-09T10:12:19.664Z,610.00
2023-06-09T10:13:19.691Z,611.00
2023-06-09T10:14:19.684Z,612.00
2023-06-09T10:15:19.694Z,614.00
2023-06-09T10:16:19.731Z,614.00
2023-06-09T10:17:19.758Z,614.00
2023-06-09T10:18:19.774Z,613.00
2023-06-09T10:19:19.751Z,610.00
2023-06-09T10:20:19.780Z,609.00
2023-06-09T10:21:19.796Z,609.00
2023-06-09T10:22:19.841Z,610.00
2023-06-09T10:23:19.815Z,611.00
2023-06-09T10:24:19.905Z,612.00
2023-06-09T10:25:19.853Z,611.00
2023-06-09T10:26:19.867Z,609.00
2023-06-09T10:27:19.881Z,610.00
2023-06-09T10:28:19.902Z,612.00
2023-06-09T10:29:19.916Z,613.00
2023-06-09T10:30:19.952Z,614.00
2023-06-09T10:31:19.995Z,618.00
2023-06-09T10:32:19.999Z,618.00
2023-06-09T10:33:19.994Z,615.00
2023-06-09T10:34:20.020Z,615.00
2023-06-09T10:35:20.052Z,612.00
2023-06-09T10:36:20.178Z,611.00
2023-06-09T10:37:20.060Z,611.00
2023-06-09T10:38:20.092Z,609.00
2023-06-09T10:39:20.902Z,611.00
2023-06-09T10:40:20.129Z,611.00
2023-06-09T10:41:20.179Z,611.00
2023-06-09T10:42:20.169Z,606.00
2023-06-09T10:43:20.215Z,607.00
2023-06-09T10:44:20.238Z,607.00
2023-06-09T10:45:20.247Z,605.00
2023-06-09T10:46:20.291Z,604.00
2023-06-09T10:47:20.287Z,605.00
2023-06-09T10:48:20.296Z,605.00
2023-06-09T10:49:20.312Z,605.00
2023-06-09T10:50:20.333Z,602.00
2023-06-09T10:51:20.373Z,604.00
2023-06-09T10:52:20.396Z,605.00
2023-06-09T10:53:20.420Z,608.00
2023-06-09T10:54:20.442Z,610.00
2023-06-09T10:55:20.470Z,610.00
2023-06-09T10:56:20.489Z,610.00
2023-06-09T10:57:20.513Z,612.00
2023-06-09T10:58:20.530Z,610.00
2023-06-09T10:59:20.561Z,611.00
2023-06-09T11:00:20.591Z,610.00
2023-06-09T11:01:20.628Z,607.00
2023-06-09T11:02:20.652Z,606.00
2023-06-09T11:03:20.720Z,607.00
2023-06-09T11:04:20.812Z,605.00
2023-06-09T11:05:20.751Z,604.00
2023-06-09T11:06:20.767Z,605.00
2023-06-09T11:07:20.805Z,607.00
2023-06-09T11:08:20.889Z,607.00
2023-06-09T11:09:20.856Z,608.00
2023-06-09T11:10:20.890Z,609.00
2023-06-09T11:11:20.935Z,609.00
2023-06-09T11:12:20.970Z,609.00
2023-06-09T11:13:21.013Z,610.00
2023-06-09T11:14:21.043Z,610.00
2023-06-09T11:15:21.073Z,611.00
2023-06-09T11:16:21.129Z,611.00
2023-06-09T11:17:21.172Z,610.00
2023-06-09T11:18:21.405Z,608.00
2023-06-09T11:19:21.251Z,606.00
2023-06-09T11:20:21.334Z,610.00
2023-06-09T11:21:21.435Z,612.00
2023-06-09T11:22:21.364Z,611.00
2023-06-09T11:23:21.372Z,613.00
2023-06-09T11:24:21.453Z,613.00
2023-06-09T11:25:21.503Z,612.00
2023-06-09T11:26:21.490Z,613.00
2023-06-09T11:27:21.532Z,613.00
2023-06-09T11:28:21.579Z,613.00
2023-06-09T11:29:21.576Z,612.00
2023-06-09T11:30:21.625Z,610.00
2023-06-09T11:31:21.745Z,608.00
2023-06-09T11:32:21.711Z,608.00
2023-06-09T11:33:21.736Z,610.00
2023-06-09T11:34:21.765Z,609.00
2023-06-09T11:35:21.770Z,610.00
2023-06-09T11:36:21.822Z,612.00
2023-06-09T11:37:21.862Z,612.00
2023-06-09T11:38:21.837Z,612.00
2023-06-09T11:39:21.846Z,611.00
2023-06-09T11:40:21.861Z,609.00
2023-06-09T11:41:21.864Z,609.00
2023-06-09T11:42:21.878Z,608.00
2023-06-09T11:43:21.898Z,607.00
2023-06-09T11:44:21.925Z,608.00
2023-06-09T11:45:21.930Z,609.00
2023-06-09T11:46:22.062Z,607.00
2023-06-09T11:47:21.981Z,607.00
2023-06-09T11:48:21.992Z,609.00
2023-06-09T11:49:21.960Z,609.00
2023-06-09T11:50:21.966Z,610.00
2023-06-09T11:51:21.972Z,609.00
2023-06-09T11:52:21.956Z,610.00
2023-06-09T11:53:21.967Z,610.00
2023-06-09T11:54:21.969Z,609.00
2023-06-09T11:55:21.974Z,608.00
2023-06-09T11:56:22.006Z,607.00
2023-06-09T11:57:22.009Z,604.00
2023-06-09T11:58:22.015Z,603.00
2023-06-09T11:59:30.516Z,604.00
2023-06-09T12:00:24.391Z,605.00
2023-06-09T12:01:22.072Z,604.00
2023-06-09T12:02:22.170Z,602.00
2023-06-09T12:03:22.220Z,604.00
2023-06-09T12:04:22.175Z,604.00
2023-06-09T12:05:22.183Z,604.00
2023-06-09T12:06:22.440Z,604.00
2023-06-09T12:07:22.200Z,603.00
2023-06-09T12:08:22.245Z,606.00
2023-06-09T12:09:22.221Z,605.00
2023-06-09T12:10:22.227Z,604.00
2023-06-09T12:11:22.251Z,602.00
2023-06-09T12:12:22.253Z,602.00
2023-06-09T12:13:22.263Z,604.00
2023-06-09T12:14:22.267Z,603.00
2023-06-09T12:15:22.293Z,602.00
2023-06-09T12:16:22.328Z,599.00
2023-06-09T12:17:22.388Z,598.00
2023-06-09T12:18:22.598Z,599.00
2023-06-09T12:19:22.350Z,600.00
2023-06-09T12:20:22.389Z,604.00
2023-06-09T12:21:22.379Z,604.00
2023-06-09T12:22:22.415Z,603.00
2023-06-09T12:23:22.425Z,603.00
2023-06-09T12:24:22.449Z,605.00
2023-06-09T12:25:22.410Z,603.00
2023-06-09T12:26:22.416Z,601.00
2023-06-09T12:27:22.394Z,602.00
2023-06-09T12:28:22.451Z,601.00